Time;durP1;ratioP1;P1;durP2;ratioP2;P2;SDS_P1;SDS_P2;PMS_P1;PMS_P2;Temp;Humidity;BMP_temperature;BMP_pressure;BME280_temperature;BME280_humidity;BME280_pressure;Samples;Min_cycle;Max_cycle;Signal;HPM_P1;HPM_P2
2022/05/09 00:01:22;;;;;;;12.45;7.82;;;;;13.90;97080.00;;;;8189763;28;20238;-75
2022/05/09 00:05:28;;;;;;;16.27;8.57;;;;;13.80;97064.00;;;;8200103;28;20235;-76
2022/05/09 00:09:32;;;;;;;8.98;7.72;;;;;13.80;97076.00;;;;8196622;28;20337;-77
2022/05/09 00:13:37;;;;;;;15.98;7.93;;;;;13.80;97065.00;;;;8203619;28;20233;-76
2022/05/09 00:17:40;;;;;;;11.05;7.90;;;;;13.70;97067.00;;;;8192796;28;20231;-78
2022/05/09 00:21:45;;;;;;;11.10;8.60;;;;;13.60;97066.00;;;;8184089;28;20220;-76
2022/05/09 00:25:48;;;;;;;11.65;7.93;;;;;13.60;97058.00;;;;8182028;28;20246;-76
2022/05/09 00:29:52;;;;;;;9.55;8.38;;;;;13.60;97067.00;;;;8187204;28;20240;-77
2022/05/09 00:33:55;;;;;;;12.95;8.77;;;;;13.60;97068.00;;;;8181920;28;20774;-77
2022/05/09 00:37:59;;;;;;;12.20;8.55;;;;;13.50;97061.00;;;;8191626;28;20243;-76
2022/05/09 00:42:09;;;;;;;11.05;8.98;;;;;13.50;97074.00;;;;8194038;28;20238;-78
2022/05/09 00:46:12;;;;;;;11.13;8.23;;;;;13.40;97057.00;;;;8217000;28;20231;-78
2022/05/09 00:50:23;;;;;;;11.98;8.98;;;;;13.30;97072.00;;;;8189115;28;20225;-76
2022/05/09 00:54:30;;;;;;;11.98;9.35;;;;;13.20;97073.00;;;;8190518;28;20592;-75
2022/05/09 00:58:46;;;;;;;11.23;8.80;;;;;13.10;97076.00;;;;8193032;28;20242;-76
2022/05/09 01:02:56;;;;;;;13.43;9.52;;;;;12.90;97068.00;;;;8189597;28;20249;-75
2022/05/09 01:07:00;;;;;;;13.35;9.23;;;;;12.80;97074.00;;;;8190634;28;20735;-78
2022/05/09 01:11:05;;;;;;;12.55;9.60;;;;;12.80;97070.00;;;;8198242;28;20237;-76
2022/05/09 01:15:12;;;;;;;14.52;9.50;;;;;12.80;97072.00;;;;8197299;28;20667;-76
2022/05/09 01:19:35;;;;;;;12.77;9.57;;;;;12.70;97071.00;;;;8196268;28;20269;-76
2022/05/09 01:23:39;;;;;;;16.42;9.70;;;;;12.60;97060.00;;;;8179996;28;20240;-78
2022/05/09 01:27:47;;;;;;;15.18;9.63;;;;;12.40;97061.00;;;;8180598;28;20242;-76
2022/05/09 01:31:52;;;;;;;20.17;10.43;;;;;12.20;97058.00;;;;8176337;28;20422;-76
2022/05/09 01:35:58;;;;;;;13.57;10.68;;;;;12.10;97062.00;;;;8182066;28;20232;-76
2022/05/09 01:40:03;;;;;;;19.25;11.70;;;;;12.00;97057.00;;;;8181708;28;20314;-77
2022/05/09 01:44:10;;;;;;;18.63;12.20;;;;;11.90;97063.00;;;;8184136;28;20230;-77
2022/05/09 01:52:34;;;;;;;21.92;12.70;;;;;11.80;97055.00;;;;8182385;28;20261;-76
2022/05/09 01:56:41;;;;;;;17.45;11.32;;;;;11.80;97052.00;;;;8189416;28;20232;-76
2022/05/09 02:00:44;;;;;;;26.15;12.30;;;;;11.70;97056.00;;;;8189918;28;20942;-76
2022/05/09 02:04:47;;;;;;;24.02;14.70;;;;;11.60;97059.00;;;;8179860;28;20235;-77
2022/05/09 02:08:51;;;;;;;28.98;14.23;;;;;11.70;97055.00;;;;8186442;28;20301;-76
2022/05/09 02:12:55;;;;;;;20.85;13.80;;;;;11.70;97061.00;;;;8186535;28;20242;-78
2022/05/09 02:16:58;;;;;;;21.92;14.02;;;;;11.60;97057.00;;;;8185252;28;20814;-77
2022/05/09 02:21:02;;;;;;;19.30;13.73;;;;;11.60;97055.00;;;;8184415;28;20627;-79
2022/05/09 02:25:26;;;;;;;19.60;13.82;;;;;11.60;97055.00;;;;8183327;28;20702;-77
2022/05/09 02:29:32;;;;;;;18.30;13.93;;;;;11.60;97057.00;;;;8188209;28;20267;-77
2022/05/09 02:33:35;;;;;;;19.27;14.02;;;;;11.60;97058.00;;;;8191868;28;20646;-78
2022/05/09 02:37:38;;;;;;;21.95;13.85;;;;;11.60;97057.00;;;;8198773;28;20313;-78
2022/05/09 02:41:44;;;;;;;24.77;15.32;;;;;11.50;97058.00;;;;8195174;28;20228;-75
2022/05/09 02:45:48;;;;;;;23.40;15.27;;;;;11.50;97061.00;;;;8196787;28;20292;-76
2022/05/09 02:49:52;;;;;;;21.85;15.18;;;;;11.50;97059.00;;;;8201556;28;20234;-76
2022/05/09 02:53:56;;;;;;;21.08;14.95;;;;;11.50;97059.00;;;;8185842;28;20256;-75
2022/05/09 02:58:01;;;;;;;21.85;15.00;;;;;11.50;97057.00;;;;8192718;28;20307;-77
2022/05/09 03:02:07;;;;;;;26.10;16.13;;;;;11.40;97064.00;;;;8289929;22;20201;-77
2022/05/09 03:06:10;;;;;;;29.80;17.17;;;;;11.40;97063.00;;;;8329694;28;20682;-79
2022/05/09 03:10:14;;;;;;;28.35;16.48;;;;;11.40;97071.00;;;;8340492;28;20311;-79
2022/05/09 03:14:17;;;;;;;34.10;17.00;;;;;11.30;97066.00;;;;8343968;28;20238;-77
2022/05/09 03:18:25;;;;;;;28.13;16.75;;;;;11.30;97061.00;;;;8339047;28;20242;-77
2022/05/09 03:22:28;;;;;;;24.75;15.60;;;;;11.20;97064.00;;;;8345358;28;20305;-79
2022/05/09 03:26:32;;;;;;;24.27;16.27;;;;;11.10;97053.00;;;;8343685;28;20238;-80
2022/05/09 03:30:36;;;;;;;24.10;16.52;;;;;11.00;97063.00;;;;8337707;28;20232;-78
2022/05/09 03:34:40;;;;;;;24.38;15.45;;;;;11.00;97054.00;;;;8339651;28;20262;-79
2022/05/09 03:38:43;;;;;;;27.33;16.08;;;;;11.00;97058.00;;;;8345178;28;20233;-78
2022/05/09 03:42:47;;;;;;;30.30;17.63;;;;;11.00;97048.00;;;;8344551;28;20232;-77
2022/05/09 03:46:51;;;;;;;25.52;17.40;;;;;11.00;97054.00;;;;8336710;28;20218;-77
2022/05/09 03:50:56;;;;;;;32.05;18.02;;;;;11.10;97055.00;;;;8343394;28;20242;-78
2022/05/09 03:55:00;;;;;;;32.67;18.63;;;;;11.20;97060.00;;;;8350403;28;20569;-78
2022/05/09 03:59:03;;;;;;;27.23;16.27;;;;;11.20;97068.00;;;;8332525;28;20228;-76
2022/05/09 04:03:06;;;;;;;26.98;16.63;;;;;11.30;97060.00;;;;8347456;28;20236;-79
2022/05/09 04:07:11;;;;;;;27.15;15.88;;;;;11.40;97067.00;;;;8349600;28;20844;-81
2022/05/09 04:11:14;;;;;;;29.25;17.95;;;;;11.40;97077.00;;;;8355790;28;20307;-77
2022/05/09 04:19:50;;;;;;;27.05;17.63;;;;;11.60;97074.00;;;;8268881;28;20259;-77
2022/05/09 04:24:02;;;;;;;27.13;16.38;;;;;11.70;97081.00;;;;8339505;28;20374;-76
2022/05/09 04:28:08;;;;;;;30.27;17.25;;;;;11.80;97071.00;;;;8350668;28;20258;-79
2022/05/09 04:32:11;;;;;;;24.83;16.75;;;;;11.80;97077.00;;;;8352338;28;20230;-76
2022/05/09 04:36:14;;;;;;;31.42;17.88;;;;;11.90;97085.00;;;;8348321;28;20227;-78
2022/05/09 04:40:22;;;;;;;28.88;16.88;;;;;12.00;97082.00;;;;8356976;28;20322;-76
2022/05/09 04:44:27;;;;;;;24.48;15.55;;;;;12.10;97084.00;;;;8349001;28;20610;-77
2022/05/09 04:48:31;;;;;;;25.35;15.23;;;;;12.20;97083.00;;;;8351454;28;20326;-76
2022/05/09 04:52:34;;;;;;;26.15;16.92;;;;;12.40;97085.00;;;;8338532;28;20306;-75
2022/05/09 04:56:39;;;;;;;24.55;15.68;;;;;12.60;97092.00;;;;8356068;28;20253;-75
2022/05/09 05:00:43;;;;;;;20.92;14.10;;;;;12.80;97093.00;;;;8350571;28;20337;-76
2022/05/09 05:04:46;;;;;;;19.77;14.95;;;;;12.90;97095.00;;;;8355531;28;20316;-76
2022/05/09 05:08:49;;;;;;;23.30;16.13;;;;;13.20;97100.00;;;;8353568;28;20821;-76
2022/05/09 05:12:54;;;;;;;22.77;15.98;;;;;13.40;97107.00;;;;8348194;28;20688;-75
2022/05/09 05:17:03;;;;;;;18.58;14.15;;;;;13.50;97094.00;;;;8359483;28;20756;-75
2022/05/09 05:21:10;;;;;;;21.88;14.38;;;;;13.70;97095.00;;;;8357659;28;20231;-77
2022/05/09 05:25:16;;;;;;;21.83;14.10;;;;;13.90;97099.00;;;;8352294;28;20230;-73
2022/05/09 05:29:21;;;;;;;20.05;13.65;;;;;14.10;97092.00;;;;8351288;28;20229;-75
2022/05/09 05:33:24;;;;;;;20.00;13.02;;;;;14.30;97102.00;;;;8350844;28;20770;-76
2022/05/09 05:37:27;;;;;;;16.88;12.73;;;;;14.40;97105.00;;;;8353561;28;20489;-78
2022/05/09 05:41:32;;;;;;;16.63;11.55;;;;;14.60;97112.00;;;;8347560;28;20314;-80
2022/05/09 05:45:37;;;;;;;14.95;11.60;;;;;14.80;97113.00;;;;8341168;28;20252;-74
2022/05/09 05:49:41;;;;;;;16.67;10.88;;;;;15.10;97119.00;;;;8339700;28;20572;-80
2022/05/09 05:53:45;;;;;;;16.40;10.88;;;;;15.30;97128.00;;;;8350572;28;20220;-77
2022/05/09 05:57:48;;;;;;;15.38;10.43;;;;;15.40;97126.00;;;;8346353;28;20228;-75
2022/05/09 06:01:53;;;;;;;15.50;10.23;;;;;15.60;97134.00;;;;8344634;28;20689;-77
2022/05/09 06:05:57;;;;;;;17.80;10.55;;;;;15.80;97130.00;;;;8355072;28;20232;-76
2022/05/09 06:10:00;;;;;;;16.27;10.13;;;;;16.00;97132.00;;;;8349044;28;23504;-74
2022/05/09 06:14:05;;;;;;;13.43;10.07;;;;;16.20;97134.00;;;;8353186;28;20239;-73
2022/05/09 06:18:12;;;;;;;14.00;9.38;;;;;16.30;97144.00;;;;8337728;28;20234;-71
2022/05/09 06:22:16;;;;;;;14.75;9.98;;;;;16.30;97140.00;;;;8339343;28;20735;-74
2022/05/09 06:26:21;;;;;;;13.57;10.27;;;;;16.50;97140.00;;;;8345293;28;21384;-71
2022/05/09 06:30:25;;;;;;;15.15;10.02;;;;;16.80;97141.00;;;;8347996;28;20228;-71
2022/05/09 06:34:29;;;;;;;11.60;9.45;;;;;17.00;97148.00;;;;8356318;28;20239;-73
2022/05/09 06:38:33;;;;;;;12.55;9.30;;;;;17.20;97156.00;;;;8343870;28;20669;-78
2022/05/09 06:42:38;;;;;;;16.55;10.50;;;;;17.30;97155.00;;;;8342342;28;20271;-79
2022/05/09 06:46:43;;;;;;;10.82;8.50;;;;;17.40;97154.00;;;;8344130;28;20295;-76
2022/05/09 06:50:47;;;;;;;9.32;8.40;;;;;17.70;97158.00;;;;8347572;28;20230;-78
2022/05/09 06:54:51;;;;;;;10.45;8.63;;;;;18.00;97157.00;;;;8346344;28;20225;-77
2022/05/09 06:58:54;;;;;;;10.88;7.95;;;;;18.30;97163.00;;;;8347152;28;20354;-79
2022/05/09 07:02:57;;;;;;;9.90;8.40;;;;;18.60;97170.00;;;;8345360;28;20234;-78
2022/05/09 07:07:02;;;;;;;11.27;7.03;;;;;18.70;97167.00;;;;8344973;28;20286;-77
2022/05/09 07:11:06;;;;;;;13.60;9.05;;;;;19.20;97163.00;;;;8349659;28;20227;-77
2022/05/09 07:15:17;;;;;;;12.23;8.13;;;;;19.60;97170.00;;;;8338745;28;20701;-77
2022/05/09 07:19:21;;;;;;;8.48;7.47;;;;;20.10;97170.00;;;;8348778;28;20252;-78
2022/05/09 07:23:26;;;;;;;11.05;8.15;;;;;20.40;97163.00;;;;8360606;28;20878;-75
2022/05/09 07:27:30;;;;;;;9.45;7.40;;;;;20.50;97166.00;;;;8348091;28;20238;-74
2022/05/09 07:31:34;;;;;;;8.75;6.85;;;;;20.60;97173.00;;;;8368807;28;20224;-73
2022/05/09 07:35:37;;;;;;;7.35;6.55;;;;;21.10;97172.00;;;;8366543;28;20235;-74
2022/05/09 07:39:42;;;;;;;10.75;6.75;;;;;21.50;97172.00;;;;8352416;28;20271;-78
2022/05/09 07:43:45;;;;;;;7.90;7.05;;;;;22.00;97176.00;;;;8356521;28;20321;-72
2022/05/09 07:47:49;;;;;;;8.60;6.60;;;;;22.10;97175.00;;;;8360701;28;20232;-72
2022/05/09 07:51:52;;;;;;;7.88;7.07;;;;;22.20;97174.00;;;;8356913;28;20228;-71
2022/05/09 07:55:57;;;;;;;10.95;7.22;;;;;22.00;97186.00;;;;8347439;28;20232;-72
2022/05/09 08:00:00;;;;;;;8.27;6.85;;;;;22.10;97185.00;;;;8348027;28;20355;-72
2022/05/09 08:04:04;;;;;;;7.95;7.10;;;;;22.10;97181.00;;;;8352339;28;20231;-71
2022/05/09 08:08:08;;;;;;;12.68;6.85;;;;;22.40;97179.00;;;;8357310;28;20250;-71
2022/05/09 08:12:13;;;;;;;10.15;7.07;;;;;22.90;97184.00;;;;8350599;28;20383;-70
2022/05/09 08:16:18;;;;;;;7.95;5.90;;;;;23.20;97189.00;;;;8341509;28;20232;-70
2022/05/09 08:20:23;;;;;;;6.85;6.22;;;;;23.80;97184.00;;;;8346341;28;20667;-72
2022/05/09 08:24:28;;;;;;;8.63;6.80;;;;;24.00;97190.00;;;;8349082;28;20316;-71
2022/05/09 08:28:34;;;;;;;7.47;6.57;;;;;24.00;97183.00;;;;8348877;28;20220;-71
2022/05/09 08:32:38;;;;;;;8.65;6.40;;;;;23.60;97182.00;;;;8363072;28;20231;-71
2022/05/09 08:36:48;;;;;;;9.07;6.05;;;;;23.70;97185.00;;;;8344891;28;20231;-75
2022/05/09 08:41:07;;;;;;;7.53;5.80;;;;;24.00;97178.00;;;;8356383;28;20224;-70
2022/05/09 08:45:26;;;;;;;10.25;5.63;;;;;24.40;97184.00;;;;8356931;28;20235;-71
2022/05/09 08:49:38;;;;;;;8.05;5.68;;;;;24.50;97192.00;;;;8351316;28;20231;-78
2022/05/09 08:53:45;;;;;;;5.93;5.43;;;;;24.60;97199.00;;;;8356157;28;20317;-77
2022/05/09 08:57:53;;;;;;;5.90;5.30;;;;;24.80;97194.00;;;;8347431;28;20212;-77
2022/05/09 09:02:05;;;;;;;7.80;5.32;;;;;25.00;97196.00;;;;8354834;28;20315;-79
2022/05/09 09:06:18;;;;;;;5.80;5.18;;;;;25.40;97204.00;;;;8357096;28;20248;-81
2022/05/09 09:10:27;;;;;;;8.23;4.68;;;;;26.10;97203.00;;;;8346620;28;20239;-77
2022/05/09 09:14:43;;;;;;;11.75;5.30;;;;;26.90;97196.00;;;;8344472;28;20233;-78
2022/05/09 09:19:05;;;;;;;8.52;4.70;;;;;26.50;97199.00;;;;8349819;28;20307;-78
2022/05/09 09:23:20;;;;;;;7.82;5.72;;;;;26.60;97195.00;;;;8342579;28;20303;-78
2022/05/09 09:27:35;;;;;;;10.85;5.43;;;;;27.30;97188.00;;;;8350995;28;20235;-78
2022/05/09 09:31:40;;;;;;;4.88;4.40;;;;;28.20;97190.00;;;;8338598;28;20218;-78
2022/05/09 09:35:50;;;;;;;6.05;4.70;;;;;29.10;97201.00;;;;8331692;28;20236;-77
2022/05/09 09:39:53;;;;;;;5.18;4.68;;;;;29.60;97199.00;;;;8343667;28;20231;-78
2022/05/09 09:44:02;;;;;;;5.68;5.18;;;;;30.20;97195.00;;;;8341694;28;20308;-77
2022/05/09 09:48:12;;;;;;;6.68;4.55;;;;;30.60;97196.00;;;;8340204;28;20252;-78
2022/05/09 09:52:22;;;;;;;5.05;4.50;;;;;30.90;97187.00;;;;8345652;28;20637;-82
2022/05/09 09:56:32;;;;;;;9.00;4.47;;;;;31.20;97189.00;;;;8346342;28;20315;-78
2022/05/09 10:00:37;;;;;;;8.23;5.10;;;;;31.80;97197.00;;;;8344030;28;20771;-77
2022/05/09 10:04:41;;;;;;;5.28;4.80;;;;;31.30;97195.00;;;;8345920;28;20232;-72
2022/05/09 10:08:46;;;;;;;9.40;4.95;;;;;30.70;97194.00;;;;8345661;28;20234;-71
2022/05/09 10:12:52;;;;;;;6.43;4.85;;;;;30.40;97189.00;;;;8342325;28;20582;-72
2022/05/09 10:17:12;;;;;;;7.85;4.53;;;;;31.20;97183.00;;;;8339074;28;20295;-71
2022/05/09 10:24:47;;;;;;;5.80;4.70;;;;;31.80;97176.00;;;;8321317;28;20327;-73
2022/05/09 10:26:00;;;;;;;5.00;4.60;;;;;32.40;97180.00;;;;8347930;28;20251;-72
2022/05/09 10:30:07;;;;;;;9.20;4.55;;;;;32.80;97176.00;;;;8347101;28;20676;-72
2022/05/09 10:34:17;;;;;;;5.03;4.38;;;;;33.20;97176.00;;;;8340799;28;20742;-71
2022/05/09 10:38:41;;;;;;;4.93;4.45;;;;;32.10;97175.00;;;;8350425;28;20323;-71
2022/05/09 10:42:49;;;;;;;9.75;4.85;;;;;32.40;97161.00;;;;8344882;28;20674;-71
2022/05/09 10:46:55;;;;;;;9.95;4.20;;;;;32.20;97168.00;;;;8352918;28;20251;-72
2022/05/09 10:51:03;;;;;;;8.38;3.97;;;;;31.90;97156.00;;;;8349679;28;20235;-71
2022/05/09 10:55:13;;;;;;;6.45;4.30;;;;;31.60;97151.00;;;;8352082;28;20232;-71
2022/05/09 10:59:23;;;;;;;4.88;4.38;;;;;32.50;97149.00;;;;8349011;28;20227;-71
2022/05/09 11:03:34;;;;;;;8.95;4.40;;;;;32.80;97148.00;;;;8346088;28;20225;-72
2022/05/09 11:07:45;;;;;;;6.35;4.40;;;;;33.10;97143.00;;;;8358069;28;20228;-72
2022/05/09 11:12:07;;;;;;;5.35;4.82;;;;;31.50;97132.00;;;;8343199;28;20324;-73
2022/05/09 11:16:19;;;;;;;6.28;4.20;;;;;30.90;97136.00;;;;8347318;28;20324;-74
2022/05/09 11:20:32;;;;;;;6.68;4.57;;;;;30.80;97132.00;;;;8349376;28;20824;-73
2022/05/09 11:24:52;;;;;;;5.05;4.57;;;;;30.90;97126.00;;;;8351100;28;20244;-72
2022/05/09 11:29:24;;;;;;;10.23;5.10;;;;;30.90;97112.00;;;;8352086;28;20216;-73
2022/05/09 11:33:42;;;;;;;6.60;4.47;;;;;30.80;97110.00;;;;8346213;28;21880;-72
2022/05/09 11:38:08;;;;;;;6.07;4.65;;;;;29.80;97110.00;;;;8352498;28;20228;-76
2022/05/09 11:47:04;;;;;;;5.53;4.20;;;;;27.60;97108.00;;;;8356897;28;20243;-76
2022/05/09 11:51:18;;;;;;;5.65;4.68;;;;;27.00;97097.00;;;;8344580;28;20226;-76
2022/05/09 11:55:23;;;;;;;6.57;4.60;;;;;27.30;97098.00;;;;8351115;28;20235;-72
2022/05/09 11:59:29;;;;;;;11.40;4.25;;;;;27.30;97093.00;;;;8349964;28;20220;-72
2022/05/09 12:04:00;;;;;;;5.55;4.53;;;;;28.40;97095.00;;;;8342633;28;20228;-71
2022/05/09 12:08:13;;;;;;;5.05;3.78;;;;;27.70;97102.00;;;;8348975;28;20208;-69
2022/05/09 12:12:43;;;;;;;5.15;4.30;;;;;27.00;97098.00;;;;8349006;28;20889;-72
2022/05/09 12:16:54;;;;;;;6.03;4.00;;;;;26.80;97102.00;;;;8343667;28;20232;-72
2022/05/09 12:21:10;;;;;;;5.70;4.13;;;;;26.90;97098.00;;;;8351233;28;20718;-69
2022/05/09 12:25:59;;;;;;;4.70;3.58;;;;;26.80;97104.00;;;;8354581;28;20744;-76
2022/05/09 12:30:02;;;;;;;7.38;3.80;;;;;27.00;97096.00;;;;8359112;28;20223;-75
2022/05/09 12:34:09;;;;;;;4.40;4.00;;;;;27.10;97097.00;;;;8350825;28;20228;-76
2022/05/09 12:38:12;;;;;;;5.50;4.10;;;;;27.60;97094.00;;;;8363242;28;20224;-75
2022/05/09 12:42:46;;;;;;;5.70;4.03;;;;;27.40;97090.00;;;;8359069;28;20307;-72
2022/05/09 12:46:52;;;;;;;7.88;3.70;;;;;27.10;97093.00;;;;8337585;28;20243;-75
2022/05/09 12:50:55;;;;;;;10.60;3.83;;;;;26.50;97093.00;;;;8353934;28;20230;-72
2022/05/09 12:59:24;;;;;;;8.82;4.25;;;;;25.40;97085.00;;;;8359843;28;20223;-75
2022/05/09 13:03:27;;;;;;;5.20;4.30;;;;;24.90;97083.00;;;;8350452;28;20240;-76
2022/05/09 13:07:30;;;;;;;12.68;4.97;;;;;23.00;97086.00;;;;8358293;28;20233;-74
2022/05/09 13:11:34;;;;;;;12.50;5.65;;;;;20.50;97106.00;;;;8355261;28;20666;-70
2022/05/09 13:15:43;;;;;;;14.93;5.85;;;;;19.00;97109.00;;;;8342803;28;20232;-71
2022/05/09 13:19:48;;;;;;;13.38;5.88;;;;;17.70;97115.00;;;;8354185;28;20758;-70
2022/05/09 13:23:52;;;;;;;15.57;8.15;;;;;16.80;97120.00;;;;8339902;28;20696;-70
2022/05/09 13:27:57;;;;;;;8.05;6.63;;;;;16.50;97122.00;;;;8346989;28;20940;-70
2022/05/09 13:32:04;;;;;;;15.07;8.85;;;;;16.40;97115.00;;;;8356900;28;20319;-70
2022/05/09 13:36:07;;;;;;;13.15;8.68;;;;;16.40;97105.00;;;;8346008;28;20329;-72
2022/05/09 13:40:13;;;;;;;21.67;10.98;;;;;16.60;97092.00;;;;8353897;28;20243;-71
2022/05/09 13:44:21;;;;;;;27.00;11.45;;;;;17.10;97088.00;;;;8340740;28;20239;-69
2022/05/09 13:48:26;;;;;;;22.63;12.38;;;;;17.50;97088.00;;;;8341822;28;20612;-67
2022/05/09 13:52:33;;;;;;;25.67;12.40;;;;;17.70;97082.00;;;;8350897;28;20234;-67
2022/05/09 13:56:38;;;;;;;17.45;11.43;;;;;17.80;97080.00;;;;8347497;28;20238;-66
2022/05/09 14:01:03;;;;;;;18.75;10.50;;;;;17.70;97078.00;;;;8349925;28;20259;-79
2022/05/09 14:05:13;;;;;;;14.30;8.90;;;;;17.40;97062.00;;;;8328288;28;20714;-76
2022/05/09 14:09:21;;;;;;;13.07;7.75;;;;;17.40;97046.00;;;;8352504;28;20240;-71
2022/05/09 14:13:41;;;;;;;19.55;10.45;;;;;17.60;97034.00;;;;8351453;28;20219;-68
2022/05/09 14:17:48;;;;;;;19.20;10.07;;;;;17.80;97039.00;;;;8347914;28;20327;-68
2022/05/09 14:21:57;;;;;;;14.25;8.95;;;;;17.80;97028.00;;;;8330962;28;20232;-64
2022/05/09 14:30:31;;;;;;;25.88;11.73;;;;;18.30;97026.00;;;;8358810;28;20307;-68
2022/05/09 14:34:41;;;;;;;22.35;11.80;;;;;18.60;97015.00;;;;8346284;28;20300;-67
2022/05/09 14:38:54;;;;;;;29.95;13.23;;;;;19.30;97015.00;;;;8350013;28;20236;-66
2022/05/09 14:43:01;;;;;;;17.92;11.38;;;;;20.10;97018.00;;;;8348683;28;20236;-70
2022/05/09 14:47:13;;;;;;;15.25;11.07;;;;;21.10;97011.00;;;;8358713;28;20226;-68
2022/05/09 14:51:36;;;;;;;12.32;8.88;;;;;21.80;97005.00;;;;8357510;28;20719;-69
2022/05/09 15:00:11;;;;;;;8.68;7.30;;;;;22.40;97005.00;;;;8361507;28;20226;-71
2022/05/09 15:04:14;;;;;;;10.15;6.95;;;;;22.60;97012.00;;;;8354193;28;20562;-70
2022/05/09 15:08:18;;;;;;;5.07;4.43;;;;;22.70;97007.00;;;;8344848;28;20726;-69
2022/05/09 15:12:25;;;;;;;5.00;4.50;;;;;22.80;96992.00;;;;8346793;28;20231;-69
2022/05/09 15:16:32;;;;;;;4.40;4.00;;;;;23.00;96987.00;;;;8371862;28;20319;-68
2022/05/09 15:20:35;;;;;;;7.10;3.80;;;;;23.50;96989.00;;;;8360855;28;20232;-68
2022/05/09 15:24:39;;;;;;;4.03;3.72;;;;;24.00;96976.00;;;;8364675;28;20715;-68
2022/05/09 15:28:44;;;;;;;4.20;3.80;;;;;24.40;96971.00;;;;8350366;28;20748;-68
2022/05/09 15:32:50;;;;;;;3.78;3.45;;;;;24.90;96973.00;;;;8350606;28;20702;-68
2022/05/09 15:36:54;;;;;;;5.32;3.20;;;;;25.30;96972.00;;;;8363431;28;20242;-68
2022/05/09 15:41:02;;;;;;;3.67;3.33;;;;;25.30;96968.00;;;;8362362;28;20220;-68
2022/05/09 15:45:10;;;;;;;4.05;2.90;;;;;25.30;96977.00;;;;8346208;28;20311;-69
2022/05/09 15:49:17;;;;;;;3.05;2.83;;;;;25.30;96974.00;;;;8354841;28;20549;-68
2022/05/09 15:53:21;;;;;;;7.50;3.42;;;;;25.30;96961.00;;;;8354992;28;20258;-69
2022/05/09 15:57:26;;;;;;;3.42;3.13;;;;;25.50;96965.00;;;;8356974;28;20232;-69
2022/05/09 16:01:35;;;;;;;3.17;2.97;;;;;25.70;96961.00;;;;8357781;28;20224;-70
2022/05/09 16:14:22;;;;;;;3.20;2.90;;;;;26.20;96945.00;;;;8363940;28;20224;-69
2022/05/09 16:18:29;;;;;;;2.90;2.70;;;;;26.40;96941.00;;;;8352043;28;20754;-69
2022/05/09 16:22:33;;;;;;;5.25;3.10;;;;;26.70;96946.00;;;;8360523;28;20220;-68
2022/05/09 16:26:37;;;;;;;3.30;2.80;;;;;26.70;96946.00;;;;8358534;28;20225;-70
2022/05/09 16:30:41;;;;;;;2.70;2.50;;;;;26.90;96940.00;;;;8360084;28;20260;-69
2022/05/09 16:34:46;;;;;;;2.13;2.03;;;;;27.30;96943.00;;;;8355446;28;20239;-70
2022/05/09 16:38:49;;;;;;;2.22;2.13;;;;;27.70;96950.00;;;;8351516;28;20224;-68
2022/05/09 16:42:52;;;;;;;2.45;2.33;;;;;28.20;96956.00;;;;8362155;28;20237;-69
2022/05/09 16:46:55;;;;;;;2.65;2.40;;;;;28.30;96952.00;;;;8352187;28;20225;-69
2022/05/09 16:51:00;;;;;;;2.38;1.92;;;;;28.30;96950.00;;;;8357023;28;20275;-69
2022/05/09 16:55:05;;;;;;;2.80;2.60;;;;;28.70;96952.00;;;;8353730;28;20386;-70
2022/05/09 16:59:08;;;;;;;3.95;2.38;;;;;29.20;96946.00;;;;8355164;28;20331;-70
2022/05/09 17:03:13;;;;;;;2.38;2.20;;;;;29.60;96953.00;;;;8358659;28;20568;-70
2022/05/09 17:07:19;;;;;;;3.83;2.15;;;;;29.70;96952.00;;;;8357848;28;20220;-70
2022/05/09 17:11:26;;;;;;;4.35;2.17;;;;;29.90;96958.00;;;;8355173;28;20796;-70
2022/05/09 17:15:33;;;;;;;4.47;2.10;;;;;30.00;96949.00;;;;8347709;28;20231;-70
2022/05/09 17:19:36;;;;;;;2.40;2.20;;;;;29.80;96951.00;;;;8347522;28;20278;-71
2022/05/09 17:23:41;;;;;;;2.53;2.25;;;;;29.60;96969.00;;;;8350470;28;20242;-70
2022/05/09 17:27:46;;;;;;;3.17;2.35;;;;;29.40;96960.00;;;;8342843;28;20224;-70
2022/05/09 17:31:49;;;;;;;3.00;2.38;;;;;29.40;96964.00;;;;8340868;28;20753;-68
2022/05/09 17:40:16;;;;;;;2.67;2.10;;;;;29.00;96966.00;;;;8333507;28;20216;-69
2022/05/09 17:44:19;;;;;;;3.92;2.50;;;;;28.70;96970.00;;;;8343006;28;20653;-68
2022/05/09 17:48:22;;;;;;;2.25;2.10;;;;;28.20;96968.00;;;;8342094;28;20649;-68
2022/05/09 17:52:26;;;;;;;3.33;2.72;;;;;27.60;96976.00;;;;8346313;28;20232;-67
2022/05/09 17:56:30;;;;;;;2.80;2.63;;;;;26.50;96977.00;;;;8345195;28;20236;-69
2022/05/09 18:00:34;;;;;;;2.60;2.40;;;;;25.40;96978.00;;;;8338121;28;20229;-70
2022/05/09 18:04:38;;;;;;;3.38;2.88;;;;;24.30;96981.00;;;;8341973;28;20255;-68
2022/05/09 18:08:41;;;;;;;3.22;3.03;;;;;23.10;96983.00;;;;8341156;28;20243;-68
2022/05/09 18:12:49;;;;;;;3.83;3.50;;;;;22.10;96989.00;;;;8342933;28;20229;-70
2022/05/09 18:16:56;;;;;;;4.47;3.53;;;;;21.20;96984.00;;;;8344091;28;20783;-70
2022/05/09 18:21:04;;;;;;;3.40;3.10;;;;;20.30;96979.00;;;;8340999;28;20234;-73
2022/05/09 18:25:11;;;;;;;7.45;4.35;;;;;19.60;96980.00;;;;8332791;28;20224;-67
2022/05/09 18:29:15;;;;;;;6.35;5.30;;;;;19.00;96978.00;;;;8344840;28;20662;-68
2022/05/09 18:33:21;;;;;;;6.60;4.78;;;;;18.50;96984.00;;;;8340855;28;21059;-70
2022/05/09 18:37:28;;;;;;;6.97;5.40;;;;;18.00;96991.00;;;;8340704;28;20224;-67
2022/05/09 18:41:33;;;;;;;7.47;5.50;;;;;17.60;96987.00;;;;8351669;28;20238;-69
2022/05/09 18:45:38;;;;;;;5.65;4.95;;;;;17.10;96991.00;;;;8342565;28;20318;-66
2022/05/09 18:54:14;;;;;;;5.45;4.95;;;;;16.40;96996.00;;;;8241308;28;20221;-67
2022/05/09 18:58:19;;;;;;;5.43;4.93;;;;;16.10;96998.00;;;;8335897;28;20592;-67
2022/05/09 19:02:24;;;;;;;5.90;5.13;;;;;15.90;96991.00;;;;8334962;28;20303;-66
2022/05/09 19:06:27;;;;;;;6.70;5.63;;;;;15.70;97002.00;;;;8336258;28;20240;-66
2022/05/09 19:10:35;;;;;;;5.78;5.03;;;;;15.50;96999.00;;;;8333293;28;20563;-68
2022/05/09 19:14:42;;;;;;;5.78;4.93;;;;;15.40;97003.00;;;;8335094;28;20229;-68
2022/05/09 19:18:48;;;;;;;5.35;4.85;;;;;15.20;97009.00;;;;8346693;28;20703;-66
2022/05/09 19:22:57;;;;;;;6.47;4.95;;;;;15.00;97013.00;;;;8319994;28;20991;-67
2022/05/09 19:27:01;;;;;;;7.90;5.93;;;;;14.90;97013.00;;;;8343128;28;20232;-69
2022/05/09 19:31:04;;;;;;;7.40;5.70;;;;;14.90;97024.00;;;;8344612;28;20239;-68
2022/05/09 19:35:15;;;;;;;6.05;5.47;;;;;14.70;97023.00;;;;8348479;28;20753;-68
2022/05/09 19:39:18;;;;;;;6.80;5.53;;;;;14.60;97031.00;;;;8347571;28;20233;-68
2022/05/09 19:43:26;;;;;;;7.03;5.90;;;;;14.40;97022.00;;;;8347155;28;20227;-69
2022/05/09 19:47:32;;;;;;;7.97;6.15;;;;;14.30;97027.00;;;;8344084;28;20250;-69
2022/05/09 19:51:37;;;;;;;7.38;5.43;;;;;14.20;97020.00;;;;8347922;28;20303;-69
2022/05/09 19:55:43;;;;;;;6.50;5.63;;;;;14.00;97025.00;;;;8336528;28;20640;-67
2022/05/09 19:59:46;;;;;;;8.15;5.97;;;;;14.00;97023.00;;;;8345833;28;20311;-69
2022/05/09 20:03:50;;;;;;;9.70;6.55;;;;;13.90;97030.00;;;;8342262;28;20229;-66
2022/05/09 20:07:55;;;;;;;8.40;6.68;;;;;13.80;97025.00;;;;8332982;28;20228;-66
2022/05/09 20:12:02;;;;;;;9.90;7.40;;;;;13.80;97024.00;;;;8340563;28;20913;-66
2022/05/09 20:16:18;;;;;;;10.57;6.75;;;;;13.80;97026.00;;;;8333314;28;20228;-66
2022/05/09 20:20:22;;;;;;;9.55;7.50;;;;;13.80;97027.00;;;;8344626;28;20526;-67
2022/05/09 20:24:27;;;;;;;8.07;6.35;;;;;13.70;97038.00;;;;8370876;28;20695;-68
2022/05/09 20:32:56;;;;;;;9.10;6.85;;;;;13.40;97037.00;;;;8347876;28;21020;-68
2022/05/09 20:36:59;;;;;;;7.82;7.05;;;;;13.30;97046.00;;;;8353432;28;20251;-67
2022/05/09 20:41:04;;;;;;;9.32;7.00;;;;;13.10;97045.00;;;;8347137;28;20306;-68
2022/05/09 20:45:09;;;;;;;9.15;7.60;;;;;13.00;97045.00;;;;8351984;28;20232;-65
2022/05/09 20:49:16;;;;;;;10.90;7.95;;;;;12.80;97043.00;;;;8355670;28;20241;-66
2022/05/09 20:53:22;;;;;;;11.70;7.90;;;;;12.70;97041.00;;;;8362258;28;20306;-66
2022/05/09 20:57:27;;;;;;;10.68;7.43;;;;;12.60;97043.00;;;;8351052;28;20576;-67
2022/05/09 21:01:30;;;;;;;11.40;7.88;;;;;12.60;97038.00;;;;8358472;28;20239;-65
2022/05/09 21:05:34;;;;;;;13.93;9.45;;;;;12.50;97036.00;;;;8346261;28;20234;-66
2022/05/09 21:09:57;;;;;;;9.48;8.05;;;;;12.40;97034.00;;;;8362428;28;20232;-67
2022/05/09 21:14:02;;;;;;;14.27;9.68;;;;;12.20;97029.00;;;;8351663;28;20866;-65